createdAt,value
2018-04-01T00:01:58.688Z,8.43
2018-04-01T00:04:25.676Z,8.27
2018-04-01T00:06:52.650Z,9.53
2018-04-01T00:09:19.653Z,9.40
2018-04-01T00:11:46.634Z,9.10
2018-04-01T00:14:13.742Z,8.97
2018-04-01T00:16:40.750Z,8.03
2018-04-01T00:19:07.766Z,8.67
2018-04-01T00:21:35.514Z,9.73
2018-04-01T00:24:02.494Z,9.60
2018-04-01T00:26:30.518Z,9.23
2018-04-01T00:28:57.513Z,9.53
2018-04-01T00:31:24.519Z,9.03
2018-04-01T00:33:51.501Z,9.90
2018-04-01T00:36:18.497Z,10.50
2018-04-01T00:38:45.526Z,9.80
2018-04-01T00:41:12.514Z,9.77
2018-04-01T00:43:40.296Z,10.67
2018-04-01T00:46:07.286Z,10.77
2018-04-01T00:48:34.271Z,11.00
2018-04-01T00:51:02.038Z,10.63
2018-04-01T00:53:29.031Z,11.23
2018-04-01T00:55:56.047Z,11.23
2018-04-01T00:58:23.026Z,11.57
2018-04-01T01:00:50.040Z,10.63
2018-04-01T01:03:17.043Z,10.63
2018-04-01T01:05:44.023Z,10.40
2018-04-01T01:08:11.034Z,10.67
2018-04-01T01:10:38.793Z,10.67
2018-04-01T01:13:05.777Z,11.33
2018-04-01T01:15:32.780Z,11.03
2018-04-01T01:18:00.590Z,11.93
2018-04-01T01:20:28.330Z,12.13
2018-04-01T01:22:55.314Z,12.20
2018-04-01T01:25:22.294Z,13.40
2018-04-01T01:27:49.306Z,13.40
2018-04-01T01:30:16.290Z,13.67
2018-04-01T01:32:43.307Z,14.03
2018-04-01T01:35:10.315Z,13.83
2018-04-01T01:37:37.292Z,15.03
2018-04-01T01:40:04.290Z,15.23
2018-04-01T01:42:31.283Z,14.90
2018-04-01T01:44:58.864Z,15.53
2018-04-01T01:47:25.842Z,16.27
2018-04-01T01:49:52.822Z,15.63
2018-04-01T01:52:19.819Z,16.03
2018-04-01T01:54:47.562Z,17.43
2018-04-01T01:57:15.602Z,17.47
2018-04-01T01:59:42.578Z,18.07
2018-04-01T02:02:09.667Z,17.87
2018-04-01T02:04:36.662Z,18.60
2018-04-01T02:07:03.650Z,17.93
2018-04-01T02:09:30.654Z,18.67
2018-04-01T02:11:57.633Z,19.77
2018-04-01T02:14:24.691Z,18.80
2018-04-01T02:16:51.691Z,18.47
2018-04-01T02:19:18.673Z,18.93
2018-04-01T02:21:45.672Z,20.80
2018-04-01T02:24:12.657Z,20.20
2018-04-01T02:26:39.654Z,20.27
2018-04-01T02:29:06.633Z,18.27
2018-04-01T02:31:34.486Z,18.17
2018-04-01T02:34:01.429Z,15.27
2018-04-01T02:36:29.175Z,16.13
2018-04-01T02:38:56.194Z,18.37
2018-04-01T02:41:23.193Z,16.73
2018-04-01T02:43:50.957Z,18.40
2018-04-01T02:46:18.712Z,17.67
2018-04-01T02:48:46.464Z,18.50
2018-04-01T02:51:14.223Z,18.47
2018-04-01T02:53:41.205Z,18.90
2018-04-01T02:56:08.203Z,19.43
2018-04-01T02:58:35.192Z,18.23
2018-04-01T03:01:02.213Z,19.77
2018-04-01T03:03:29.959Z,18.77
2018-04-01T03:05:56.951Z,19.53
2018-04-01T03:08:23.954Z,18.90
2018-04-01T03:10:50.938Z,17.83
2018-04-01T03:13:17.939Z,18.17
2018-04-01T03:15:44.919Z,17.97
2018-04-01T03:18:11.930Z,17.60
2018-04-01T03:20:38.962Z,18.27
2018-04-01T03:23:05.946Z,17.93
2018-04-01T03:25:33.715Z,17.57
2018-04-01T03:28:00.690Z,17.23
2018-04-01T03:30:27.683Z,17.43
2018-04-01T03:32:55.429Z,18.23
2018-04-01T03:35:22.439Z,18.33
2018-04-01T03:37:49.427Z,18.70
2018-04-01T03:40:16.410Z,17.97
2018-04-01T03:42:43.467Z,18.13
2018-04-01T03:45:10.446Z,19.20
2018-04-01T03:47:37.442Z,19.37
2018-04-01T03:50:04.420Z,19.17
2018-04-01T03:52:31.434Z,19.20
2018-04-01T03:54:58.489Z,20.40
2018-04-01T03:57:25.462Z,19.23
2018-04-01T03:59:52.464Z,21.03
2018-04-01T04:02:19.458Z,19.17
2018-04-01T04:04:46.434Z,19.47
2018-04-01T04:07:14.178Z,18.70
2018-04-01T04:09:41.170Z,18.77
2018-04-01T04:12:08.150Z,19.03
2018-04-01T04:14:36.666Z,18.20
2018-04-01T04:17:04.408Z,19.30
2018-04-01T04:19:32.408Z,21.27
2018-04-01T04:22:00.255Z,21.20
2018-04-01T04:24:27.673Z,18.67
2018-04-01T04:26:56.426Z,19.93
2018-04-01T04:29:23.419Z,19.67
2018-04-01T04:31:50.398Z,19.27
2018-04-01T04:34:18.169Z,19.40
2018-04-01T04:36:45.150Z,19.47
2018-04-01T04:39:12.130Z,19.40
2018-04-01T04:41:40.632Z,18.87
2018-04-01T04:44:08.854Z,20.50
2018-04-01T04:46:35.851Z,21.37
2018-04-01T04:49:02.837Z,20.27
2018-04-01T04:51:29.831Z,20.83
2018-04-01T04:53:57.574Z,20.40
2018-04-01T04:56:24.601Z,19.30
2018-04-01T04:58:51.563Z,21.03
2018-04-01T05:01:18.664Z,20.80
2018-04-01T05:03:45.643Z,21.97
2018-04-01T05:06:12.622Z,22.00
2018-04-01T05:08:40.398Z,23.37
2018-04-01T05:11:07.377Z,23.27
2018-04-01T05:13:34.374Z,23.23
2018-04-01T05:16:02.126Z,22.97
2018-04-01T05:18:29.159Z,24.47
2018-04-01T05:20:56.134Z,24.47
2018-04-01T05:23:23.138Z,25.13
2018-04-01T05:25:50.114Z,24.23
2018-04-01T05:28:17.947Z,23.87
2018-04-01T05:30:44.878Z,23.87
2018-04-01T05:33:12.208Z,24.87
2018-04-01T05:35:39.202Z,23.77
2018-04-01T05:38:06.178Z,24.60
2018-04-01T05:40:33.177Z,26.27
2018-04-01T05:43:00.170Z,25.83
2018-04-01T05:45:27.166Z,22.93
2018-04-01T05:47:54.150Z,19.77
2018-04-01T05:50:21.150Z,20.67
2018-04-01T05:52:48.134Z,17.40
2018-04-01T05:55:15.898Z,18.33
2018-04-01T05:57:43.643Z,16.83
2018-04-01T06:00:11.390Z,17.47
2018-04-01T06:02:38.495Z,14.77
2018-04-01T06:05:05.478Z,12.17
2018-04-01T06:07:32.482Z,12.57
2018-04-01T06:09:59.465Z,11.00
2018-04-01T06:12:26.478Z,9.93
2018-04-01T06:14:53.520Z,10.77
2018-04-01T06:17:20.506Z,9.70
2018-04-01T06:19:47.498Z,9.30
2018-04-01T06:22:14.482Z,9.63
2018-04-01T06:24:41.486Z,9.13
2018-04-01T06:27:08.482Z,9.40
2018-04-01T06:29:35.504Z,10.07
2018-04-01T06:32:02.551Z,9.70
2018-04-01T06:34:29.541Z,9.17
2018-04-01T06:36:56.534Z,9.43
2018-04-01T06:39:23.654Z,10.57
2018-04-01T06:41:50.633Z,9.87
2018-04-01T06:44:17.639Z,10.30
2018-04-01T06:46:44.619Z,10.87
2018-04-01T06:49:12.399Z,9.93
2018-04-01T06:51:39.497Z,10.07
2018-04-01T06:54:07.258Z,10.10
2018-04-01T06:56:35.006Z,11.13
2018-04-01T06:59:02.008Z,10.60
2018-04-01T07:01:29.022Z,10.27
2018-04-01T07:03:56.014Z,10.43
2018-04-01T07:06:23.000Z,10.03
2018-04-01T07:08:50.026Z,10.30
2018-04-01T07:11:17.007Z,11.60
2018-04-01T07:13:44.773Z,10.93
2018-04-01T07:16:12.515Z,11.90
2018-04-01T07:18:39.498Z,12.40
2018-04-01T07:21:06.494Z,13.30
2018-04-01T07:23:33.470Z,13.27
2018-04-01T07:26:01.234Z,13.33
2018-04-01T07:28:28.975Z,12.23
2018-04-01T07:30:55.974Z,12.43
2018-04-01T07:33:22.954Z,12.63
2018-04-01T07:35:49.951Z,12.87
2018-04-01T07:38:16.930Z,13.73
2018-04-01T07:40:43.943Z,14.17
2018-04-01T07:43:11.311Z,14.17
2018-04-01T07:45:38.286Z,14.03
2018-04-01T07:48:05.291Z,14.93
2018-04-01T07:50:32.270Z,15.33
2018-04-01T07:52:59.695Z,15.40
2018-04-01T07:55:26.698Z,15.27
2018-04-01T07:57:54.464Z,18.93
2018-04-01T08:00:22.213Z,18.03
2018-04-01T08:02:49.214Z,17.80
2018-04-01T08:05:16.194Z,18.63
2018-04-01T08:07:43.192Z,18.27
2018-04-01T08:10:10.690Z,17.43
2018-04-01T08:12:37.667Z,20.03
2018-04-01T08:15:05.430Z,19.57
2018-04-01T08:17:33.202Z,19.10
2018-04-01T08:20:00.198Z,19.00
2018-04-01T08:22:27.182Z,18.97
2018-04-01T08:24:54.204Z,19.40
2018-04-01T08:27:21.964Z,18.30
2018-04-01T08:29:48.959Z,16.63
2018-04-01T08:32:15.941Z,17.47
2018-04-01T08:34:42.938Z,17.07
2018-04-01T08:37:09.914Z,16.60
2018-04-01T08:39:36.910Z,16.73
2018-04-01T08:42:04.654Z,12.70
2018-04-01T08:44:31.674Z,15.83
2018-04-01T08:46:58.658Z,17.50
2018-04-01T08:49:25.634Z,17.73
2018-04-01T08:51:52.626Z,16.47
2018-04-01T08:54:19.606Z,17.40
2018-04-01T08:56:47.415Z,16.33
2018-04-01T08:59:14.444Z,16.47
2018-04-01T09:01:41.438Z,15.23
2018-04-01T09:04:08.419Z,15.97
2018-04-01T09:06:35.410Z,15.17
2018-04-01T09:09:02.396Z,16.43
2018-04-01T09:11:30.292Z,14.30
2018-04-01T09:13:57.270Z,14.43
2018-04-01T09:16:24.582Z,13.70
2018-04-01T09:18:51.562Z,14.47
2018-04-01T09:21:18.546Z,12.93
2018-04-01T09:23:46.306Z,13.93
2018-04-01T09:26:14.066Z,12.47
2018-04-01T09:28:41.834Z,14.43
2018-04-01T09:31:09.586Z,15.03
2018-04-01T09:33:37.366Z,14.80
2018-04-01T09:36:04.346Z,15.00
2018-04-01T09:38:31.339Z,15.93
2018-04-01T09:40:58.354Z,14.63
2018-04-01T09:43:25.351Z,15.20
2018-04-01T09:45:52.328Z,13.57
2018-04-01T09:48:19.334Z,14.73
2018-04-01T09:50:47.087Z,12.27
2018-04-01T09:53:14.834Z,13.77
2018-04-01T09:55:42.602Z,14.17
2018-04-01T09:58:10.362Z,14.27
2018-04-01T10:00:58.583Z,13.93
2018-04-01T10:03:26.065Z,12.80
2018-04-01T10:05:53.562Z,13.57
2018-04-01T10:08:21.041Z,13.53
2018-04-01T10:10:48.577Z,12.60
2018-04-01T10:13:16.094Z,12.53
2018-04-01T10:15:44.342Z,12.10
2018-04-01T10:18:11.864Z,12.27
2018-04-01T10:20:39.350Z,11.70
2018-04-01T10:23:06.822Z,12.60
2018-04-01T10:25:34.333Z,11.67
2018-04-01T10:28:01.819Z,12.30
2018-04-01T10:30:29.286Z,11.90
2018-04-01T10:32:56.774Z,12.00
2018-04-01T10:35:25.011Z,12.10
2018-04-01T10:37:52.496Z,11.10
2018-04-01T10:40:19.998Z,10.43
2018-04-01T10:42:47.487Z,12.83
2018-04-01T10:45:14.954Z,11.93
2018-04-01T10:47:42.450Z,12.23
2018-04-01T10:50:09.919Z,12.37
2018-04-01T10:52:37.402Z,11.70
2018-04-01T10:55:04.451Z,12.77
2018-04-01T10:57:32.162Z,12.27
2018-04-01T10:59:59.906Z,13.07
2018-04-01T11:02:27.958Z,13.87
2018-04-01T11:04:54.941Z,12.77
2018-04-01T11:07:21.926Z,13.63
2018-04-01T11:09:48.922Z,13.33
2018-04-01T11:12:16.670Z,14.30
2018-04-01T11:14:44.478Z,14.17
2018-04-01T11:17:11.459Z,14.17
2018-04-01T11:19:38.466Z,14.87
2018-04-01T11:22:05.451Z,14.43
2018-04-01T11:24:32.441Z,13.40
2018-04-01T11:26:59.453Z,13.23
2018-04-01T11:29:26.435Z,12.63
2018-04-01T11:31:53.783Z,13.23
2018-04-01T11:34:20.786Z,14.40
2018-04-01T11:36:47.766Z,15.33
2018-04-01T11:39:14.776Z,16.10
2018-04-01T11:41:42.563Z,15.60
2018-04-01T11:44:09.573Z,15.67
2018-04-01T11:46:37.314Z,16.60
2018-04-01T11:49:04.295Z,15.87
2018-04-01T11:51:32.063Z,16.33
2018-04-01T11:53:59.055Z,19.07
2018-04-01T11:56:26.052Z,18.00
2018-04-01T11:58:53.029Z,17.73
2018-04-01T12:01:23.275Z,16.77
2018-04-01T12:03:51.069Z,19.90
2018-04-01T12:06:18.146Z,16.43
2018-04-01T12:08:45.669Z,17.67
2018-04-01T12:11:12.791Z,17.43
2018-04-01T12:13:40.124Z,17.13
2018-04-01T12:16:07.151Z,17.43
2018-04-01T12:18:34.145Z,18.57
2018-04-01T12:21:01.142Z,18.73
2018-04-01T12:23:28.118Z,18.57
2018-04-01T12:25:55.102Z,19.83
2018-04-01T12:28:22.095Z,19.73
2018-04-01T12:30:49.087Z,19.60
2018-04-01T12:33:16.849Z,20.73
2018-04-01T12:35:44.598Z,20.07
2018-04-01T12:38:11.594Z,20.70
2018-04-01T12:40:38.578Z,19.10
2018-04-01T12:43:05.575Z,20.17
2018-04-01T12:45:32.556Z,20.30
2018-04-01T12:48:00.355Z,20.03
2018-04-01T12:50:27.347Z,20.07
2018-04-01T12:52:54.346Z,22.00
2018-04-01T12:55:21.321Z,21.70
2018-04-01T12:57:48.358Z,23.00
2018-04-01T13:00:15.347Z,24.67
2018-04-01T13:02:43.086Z,24.53
2018-04-01T13:05:10.111Z,24.20
2018-04-01T13:07:37.095Z,24.30
2018-04-01T13:10:04.853Z,25.00
2018-04-01T13:12:31.839Z,25.53
2018-04-01T13:14:58.838Z,23.17
2018-04-01T13:17:25.818Z,23.83
2018-04-01T13:19:52.827Z,20.70
2018-04-01T13:22:19.819Z,23.67
2018-04-01T13:24:46.866Z,22.13
2018-04-01T13:27:13.838Z,24.37
2018-04-01T13:29:40.842Z,23.77
2018-04-01T13:32:07.831Z,23.50
2018-04-01T13:34:34.834Z,24.20
2018-04-01T13:37:01.814Z,23.60
2018-04-01T13:39:28.814Z,22.77
2018-04-01T13:41:56.587Z,26.47
2018-04-01T13:44:24.340Z,24.90
2018-04-01T13:46:52.085Z,26.63
2018-04-01T13:49:19.839Z,25.67
2018-04-01T13:51:46.842Z,27.37
2018-04-01T13:54:13.847Z,26.13
2018-04-01T13:56:41.607Z,26.30
2018-04-01T13:59:09.357Z,22.90
2018-04-01T14:01:36.355Z,23.20
2018-04-01T14:04:03.965Z,22.83
2018-04-01T14:06:31.138Z,19.53
2018-04-01T14:08:58.122Z,23.27
2018-04-01T14:11:25.123Z,21.70
2018-04-01T14:13:52.102Z,20.43
2018-04-01T14:16:19.406Z,17.10
2018-04-01T14:18:47.158Z,21.53
2018-04-01T14:21:14.910Z,17.03
2018-04-01T14:23:41.906Z,18.97
2018-04-01T14:26:08.903Z,14.07
2018-04-01T14:28:35.902Z,10.83
2018-04-01T14:31:02.878Z,12.63
2018-04-01T14:33:29.887Z,10.20
2018-04-01T14:35:56.871Z,12.80
2018-04-01T14:38:23.886Z,12.00
2018-04-01T14:40:50.864Z,13.00
2018-04-01T14:43:17.905Z,13.77
2018-04-01T14:45:44.849Z,11.80
2018-04-01T14:48:11.850Z,12.93
2018-04-01T14:50:38.846Z,13.50
2018-04-01T14:53:06.455Z,12.87
2018-04-01T14:55:33.453Z,12.50
2018-04-01T14:58:00.429Z,12.83
2018-04-01T15:00:27.430Z,13.57
2018-04-01T15:02:54.417Z,12.93
2018-04-01T15:05:21.415Z,12.97
2018-04-01T15:07:48.395Z,13.80
2018-04-01T15:10:16.162Z,15.17
2018-04-01T15:12:43.929Z,15.80
2018-04-01T15:15:11.690Z,14.17
2018-04-01T15:17:39.434Z,15.23
2018-04-01T15:20:07.345Z,15.63
2018-04-01T15:22:34.330Z,16.17
2018-04-01T15:25:01.317Z,15.63
2018-04-01T15:27:28.311Z,16.07
2018-04-01T15:29:55.295Z,16.23
2018-04-01T15:32:23.054Z,15.80
2018-04-01T15:34:50.795Z,13.87
2018-04-01T15:37:19.322Z,18.80
2018-04-01T15:39:46.314Z,18.90
2018-04-01T15:42:13.307Z,19.40
2018-04-01T15:44:40.305Z,18.27
2018-04-01T15:47:08.840Z,20.63
2018-04-01T15:49:35.822Z,20.87
2018-04-01T15:52:02.840Z,22.17
2018-04-01T15:54:29.875Z,23.17
2018-04-01T15:56:56.870Z,25.27
2018-04-01T15:59:23.849Z,24.23
2018-04-01T16:01:50.847Z,26.67
2018-04-01T16:04:18.271Z,27.27
2018-04-01T16:06:45.282Z,29.80
2018-04-01T16:09:13.022Z,30.53
2018-04-01T16:11:41.515Z,31.33
2018-04-01T16:14:09.283Z,30.40
2018-04-01T16:16:37.031Z,30.83
2018-04-01T16:19:04.060Z,31.97
2018-04-01T16:21:31.046Z,32.33
2018-04-01T16:23:58.810Z,31.20
2018-04-01T16:26:25.790Z,34.50
2018-04-01T16:28:52.791Z,28.50
2018-04-01T16:31:20.534Z,38.50
2018-04-01T16:33:47.530Z,42.77
2018-04-01T16:36:14.534Z,42.07
2018-04-01T16:38:42.306Z,42.70
2018-04-01T16:41:10.342Z,45.00
2018-04-01T16:43:37.333Z,41.17
2018-04-01T16:46:04.326Z,46.97
2018-04-01T16:48:31.318Z,48.43
2018-04-01T16:50:58.307Z,47.77
2018-04-01T16:53:25.306Z,47.27
2018-04-01T16:55:52.290Z,52.00
2018-04-01T16:58:19.289Z,50.73
2018-04-01T17:00:47.038Z,53.83
2018-04-01T17:03:14.802Z,53.73
2018-04-01T17:05:42.547Z,55.00
2018-04-01T17:08:09.545Z,55.10
2018-04-01T17:10:36.526Z,55.87
2018-04-01T17:13:03.507Z,57.87
2018-04-01T17:15:31.282Z,55.37
2018-04-01T17:17:58.262Z,54.40
2018-04-01T17:20:26.795Z,55.00
2018-04-01T17:22:54.544Z,57.07
2018-04-01T17:25:21.551Z,59.67
2018-04-01T17:27:48.534Z,57.27
2018-04-01T17:30:15.548Z,60.13
2018-04-01T17:32:42.542Z,58.33
2018-04-01T17:35:09.547Z,56.30
2018-04-01T17:37:36.596Z,60.67
2018-04-01T17:40:03.583Z,60.13
2018-04-01T17:42:30.599Z,59.43
2018-04-01T17:44:57.595Z,62.13
2018-04-01T17:47:24.602Z,64.03
2018-04-01T17:49:51.590Z,59.67
2018-04-01T17:52:19.412Z,67.07
2018-04-01T17:54:46.362Z,63.50
2018-04-01T17:57:13.358Z,58.23
2018-04-01T17:59:41.128Z,63.40
2018-04-01T18:02:08.897Z,64.43
2018-04-01T18:04:35.895Z,63.97
2018-04-01T18:07:02.929Z,64.50
2018-04-01T18:09:29.940Z,63.50
2018-04-01T18:11:56.942Z,64.83
2018-04-01T18:14:23.937Z,62.50
2018-04-01T18:16:51.872Z,65.97
2018-04-01T18:19:18.896Z,66.67
2018-04-01T18:21:45.874Z,68.00
2018-04-01T18:24:12.878Z,64.63
2018-04-01T18:26:39.876Z,68.57
2018-04-01T18:29:06.898Z,66.90
2018-04-01T18:31:33.888Z,68.63
2018-04-01T18:34:01.100Z,65.77
2018-04-01T18:36:28.100Z,67.53
2018-04-01T18:38:55.867Z,67.63
2018-04-01T18:41:22.866Z,66.20
2018-04-01T18:43:49.847Z,71.53
2018-04-01T18:46:16.846Z,65.93
2018-04-01T18:48:43.907Z,61.97
2018-04-01T18:51:10.873Z,64.67
2018-04-01T18:53:37.875Z,63.83
2018-04-01T18:56:04.880Z,66.13
2018-04-01T18:58:31.906Z,63.87
2018-04-01T19:00:58.908Z,65.87
2018-04-01T19:03:25.906Z,63.73
2018-04-01T19:05:52.926Z,65.17
2018-04-01T19:08:20.818Z,63.43
2018-04-01T19:10:47.822Z,64.67
2018-04-01T19:13:14.813Z,60.43
2018-04-01T19:15:42.594Z,60.77
2018-04-01T19:18:10.896Z,62.83
2018-04-01T19:20:38.390Z,61.67
2018-04-01T19:23:05.873Z,61.13
2018-04-01T19:25:34.273Z,63.63
2018-04-01T19:28:01.941Z,66.13
2018-04-01T19:30:31.022Z,63.00
2018-04-01T19:32:58.514Z,64.43
2018-04-01T19:35:26.010Z,61.03
2018-04-01T19:37:54.266Z,62.33
2018-04-01T19:40:21.812Z,56.10
2018-04-01T19:42:49.278Z,58.83
2018-04-01T19:45:16.780Z,52.83
2018-04-01T19:47:44.279Z,50.80
2018-04-01T19:50:11.754Z,51.13
2018-04-01T19:52:39.290Z,50.10
2018-04-01T19:55:06.782Z,48.80
2018-04-01T19:57:34.345Z,48.43
2018-04-01T20:00:02.592Z,46.20
2018-04-01T20:02:30.082Z,46.33
2018-04-01T20:04:57.570Z,46.73
2018-04-01T20:07:25.062Z,44.93
2018-04-01T20:09:53.298Z,43.10
2018-04-01T20:12:20.782Z,43.90
2018-04-01T20:14:48.250Z,43.10
2018-04-01T20:17:16.537Z,42.73
2018-04-01T20:19:44.030Z,43.27
2018-04-01T20:22:11.541Z,43.00
2018-04-01T20:24:39.795Z,41.73
2018-04-01T20:27:07.278Z,39.90
2018-04-01T20:29:34.853Z,38.47
2018-04-01T20:32:02.350Z,37.70
2018-04-01T20:34:29.855Z,35.33
2018-04-01T20:36:57.321Z,33.27
2018-04-01T20:39:24.806Z,35.00
2018-04-01T20:41:52.706Z,32.47
2018-04-01T20:44:20.964Z,32.07
2018-04-01T20:46:48.439Z,32.23
2018-04-01T20:49:16.752Z,30.47
2018-04-01T20:51:44.231Z,30.67
2018-04-01T20:54:11.742Z,29.83
2018-04-01T20:56:39.974Z,28.53
2018-04-01T20:59:07.463Z,28.57
2018-04-01T21:01:35.770Z,26.57
2018-04-01T21:04:03.258Z,29.27
2018-04-01T21:06:30.782Z,28.50
2018-04-01T21:08:58.266Z,28.03
2018-04-01T21:11:25.807Z,28.10
2018-04-01T21:13:53.775Z,28.30
2018-04-01T21:16:21.246Z,26.50
2018-04-01T21:18:48.734Z,27.07
2018-04-01T21:21:16.207Z,28.43
2018-04-01T21:23:43.700Z,27.53
2018-04-01T21:26:11.178Z,28.37
2018-04-01T21:28:38.666Z,28.53
2018-04-01T21:31:06.147Z,29.47
2018-04-01T21:33:34.394Z,29.87
2018-04-01T21:36:01.872Z,29.00
2018-04-01T21:38:30.183Z,30.73
2018-04-01T21:40:57.652Z,29.87
2018-04-01T21:43:25.142Z,30.37
2018-04-01T21:45:52.614Z,31.77
2018-04-01T21:48:20.866Z,32.63
2018-04-01T21:50:48.354Z,32.83
2018-04-01T21:53:16.592Z,33.90
2018-04-01T21:55:44.078Z,34.97
2018-04-01T21:58:12.318Z,35.00
2018-04-01T22:00:39.818Z,36.50
2018-04-01T22:03:08.050Z,33.60
2018-04-01T22:05:35.546Z,34.13
2018-04-01T22:08:03.778Z,34.90
2018-04-01T22:10:31.270Z,35.23
2018-04-01T22:12:59.506Z,35.03
2018-04-01T22:15:27.002Z,33.07
2018-04-01T22:17:55.252Z,32.57
2018-04-01T22:20:22.726Z,33.40
2018-04-01T22:23:02.807Z,31.30
2018-04-01T22:25:30.274Z,28.47
2018-04-01T22:27:57.762Z,28.93
2018-04-01T22:30:25.234Z,28.37
2018-04-01T22:32:52.735Z,29.67
2018-04-01T22:35:20.218Z,30.57
2018-04-01T22:37:47.708Z,27.70
2018-04-01T22:40:15.174Z,28.87
2018-04-01T22:42:43.422Z,28.83
2018-04-01T22:45:10.895Z,28.17
2018-04-01T22:47:39.146Z,28.70
2018-04-01T22:50:06.634Z,30.53
2018-04-01T22:52:34.917Z,29.80
2018-04-01T22:55:02.396Z,27.93
2018-04-01T22:57:29.866Z,28.00
2018-04-01T22:59:57.362Z,30.17
2018-04-01T23:02:24.834Z,28.30
2018-04-01T23:04:53.082Z,27.80
2018-04-01T23:07:20.558Z,31.47
2018-04-01T23:09:48.812Z,31.80
2018-04-01T23:12:16.307Z,31.03
2018-04-01T23:14:43.812Z,29.93
2018-04-01T23:17:11.290Z,29.27
2018-04-01T23:19:38.778Z,29.43
2018-04-01T23:22:06.253Z,30.40
2018-04-01T23:24:33.998Z,29.37
2018-04-01T23:27:01.475Z,29.80
2018-04-01T23:29:28.945Z,30.33
2018-04-01T23:31:56.439Z,30.50
2018-04-01T23:34:24.683Z,28.23
2018-04-01T23:36:52.170Z,27.87
2018-04-01T23:39:20.407Z,28.47
2018-04-01T23:41:47.894Z,27.70
2018-04-01T23:44:15.371Z,29.73
2018-04-01T23:46:43.622Z,28.00
2018-04-01T23:49:11.102Z,28.37
2018-04-01T23:51:38.598Z,28.67
2018-04-01T23:54:06.141Z,27.27
2018-04-01T23:56:33.614Z,27.53
2018-04-01T23:59:01.163Z,26.97
